sensor_id;sensor_type;location;lat;lon;timestamp;temperature;humidity
6822;DHT22;3449;48.728;8.968;2023-03-21T00:02:25;8.60;99.90
6822;DHT22;3449;48.728;8.968;2023-03-21T00:04:52;8.60;99.90
6822;DHT22;3449;48.728;8.968;2023-03-21T00:07:19;8.50;99.90
6822;DHT22;3449;48.728;8.968;2023-03-21T00:09:46;8.60;99.90
6822;DHT22;3449;48.728;8.968;2023-03-21T00:12:13;8.50;99.90
6822;DHT22;3449;48.728;8.968;2023-03-21T00:14:41;8.50;99.90
6822;DHT22;3449;48.728;8.968;2023-03-21T00:17:09;8.50;99.90
6822;DHT22;3449;48.728;8.968;2023-03-21T00:19:37;8.50;99.90
6822;DHT22;3449;48.728;8.968;2023-03-21T00:22:06;8.50;99.90
6822;DHT22;3449;48.728;8.968;2023-03-21T00:24:33;8.50;99.90
6822;DHT22;3449;48.728;8.968;2023-03-21T00:27:00;8.50;99.90
6822;DHT22;3449;48.728;8.968;2023-03-21T00:29:27;8.50;99.90
6822;DHT22;3449;48.728;8.968;2023-03-21T00:31:54;8.40;99.90
6822;DHT22;3449;48.728;8.968;2023-03-21T00:34:20;8.40;99.90
6822;DHT22;3449;48.728;8.968;2023-03-21T00:36:49;8.40;99.90
6822;DHT22;3449;48.728;8.968;2023-03-21T00:39:16;8.40;99.90
6822;DHT22;3449;48.728;8.968;2023-03-21T00:41:43;8.40;99.90
6822;DHT22;3449;48.728;8.968;2023-03-21T00:44:12;8.40;99.90
6822;DHT22;3449;48.728;8.968;2023-03-21T00:46:40;8.40;99.90
6822;DHT22;3449;48.728;8.968;2023-03-21T00:49:07;8.40;99.90
6822;DHT22;3449;48.728;8.968;2023-03-21T00:51:34;8.30;99.90
6822;DHT22;3449;48.728;8.968;2023-03-21T00:54:02;8.40;99.90
6822;DHT22;3449;48.728;8.968;2023-03-21T00:56:30;8.40;99.90
6822;DHT22;3449;48.728;8.968;2023-03-21T00:58:57;8.40;99.90
6822;DHT22;3449;48.728;8.968;2023-03-21T01:01:23;8.40;99.90
6822;DHT22;3449;48.728;8.968;2023-03-21T01:03:51;8.40;99.90
6822;DHT22;3449;48.728;8.968;2023-03-21T01:06:28;8.40;99.90
6822;DHT22;3449;48.728;8.968;2023-03-21T01:08:55;8.30;99.90
6822;DHT22;3449;48.728;8.968;2023-03-21T01:11:25;8.30;99.90
6822;DHT22;3449;48.728;8.968;2023-03-21T01:13:53;8.30;99.90
6822;DHT22;3449;48.728;8.968;2023-03-21T01:16:20;8.30;99.90
6822;DHT22;3449;48.728;8.968;2023-03-21T01:18:47;8.30;99.90
6822;DHT22;3449;48.728;8.968;2023-03-21T01:21:14;8.30;99.90
6822;DHT22;3449;48.728;8.968;2023-03-21T01:23:42;8.30;99.90
6822;DHT22;3449;48.728;8.968;2023-03-21T01:26:11;8.30;99.90
6822;DHT22;3449;48.728;8.968;2023-03-21T01:28:41;8.30;99.90
6822;DHT22;3449;48.728;8.968;2023-03-21T01:31:11;8.30;99.90
6822;DHT22;3449;48.728;8.968;2023-03-21T01:33:38;8.30;99.90
6822;DHT22;3449;48.728;8.968;2023-03-21T01:36:06;8.20;99.90
6822;DHT22;3449;48.728;8.968;2023-03-21T01:38:33;8.30;99.90
6822;DHT22;3449;48.728;8.968;2023-03-21T01:41:01;8.30;99.90
6822;DHT22;3449;48.728;8.968;2023-03-21T01:43:29;8.20;99.90
6822;DHT22;3449;48.728;8.968;2023-03-21T01:46:20;8.20;99.90
6822;DHT22;3449;48.728;8.968;2023-03-21T01:48:52;8.20;99.90
6822;DHT22;3449;48.728;8.968;2023-03-21T01:51:20;8.10;99.90
6822;DHT22;3449;48.728;8.968;2023-03-21T01:53:48;8.10;99.90
6822;DHT22;3449;48.728;8.968;2023-03-21T01:56:18;8.10;99.90
6822;DHT22;3449;48.728;8.968;2023-03-21T01:58:48;8.10;99.90
6822;DHT22;3449;48.728;8.968;2023-03-21T02:01:18;8.00;99.90
6822;DHT22;3449;48.728;8.968;2023-03-21T02:03:48;8.00;99.90
6822;DHT22;3449;48.728;8.968;2023-03-21T02:06:21;8.00;99.90
6822;DHT22;3449;48.728;8.968;2023-03-21T02:08:51;8.00;99.90
6822;DHT22;3449;48.728;8.968;2023-03-21T02:11:19;8.00;99.90
6822;DHT22;3449;48.728;8.968;2023-03-21T02:13:48;7.90;99.90
6822;DHT22;3449;48.728;8.968;2023-03-21T02:16:24;8.00;99.90
6822;DHT22;3449;48.728;8.968;2023-03-21T02:18:57;7.90;99.90
6822;DHT22;3449;48.728;8.968;2023-03-21T02:21:52;7.90;99.90
6822;DHT22;3449;48.728;8.968;2023-03-21T02:27:33;7.90;99.90
6822;DHT22;3449;48.728;8.968;2023-03-21T02:30:27;7.90;99.90
6822;DHT22;3449;48.728;8.968;2023-03-21T02:33:16;7.90;99.90
6822;DHT22;3449;48.728;8.968;2023-03-21T02:36:09;7.90;99.90
6822;DHT22;3449;48.728;8.968;2023-03-21T02:38:49;7.80;99.90
6822;DHT22;3449;48.728;8.968;2023-03-21T02:41:22;7.90;99.90
6822;DHT22;3449;48.728;8.968;2023-03-21T02:43:53;7.90;99.90
6822;DHT22;3449;48.728;8.968;2023-03-21T02:46:27;7.80;99.90
6822;DHT22;3449;48.728;8.968;2023-03-21T02:48:58;7.80;99.90
6822;DHT22;3449;48.728;8.968;2023-03-21T02:51:27;7.80;99.90
6822;DHT22;3449;48.728;8.968;2023-03-21T02:54:00;7.80;99.90
6822;DHT22;3449;48.728;8.968;2023-03-21T02:56:30;7.80;99.90
6822;DHT22;3449;48.728;8.968;2023-03-21T02:58:59;7.80;99.90
6822;DHT22;3449;48.728;8.968;2023-03-21T03:01:26;7.80;99.90
6822;DHT22;3449;48.728;8.968;2023-03-21T03:03:53;7.80;99.90
6822;DHT22;3449;48.728;8.968;2023-03-21T03:06:24;7.80;99.90
6822;DHT22;3449;48.728;8.968;2023-03-21T03:09:18;7.70;99.90
6822;DHT22;3449;48.728;8.968;2023-03-21T03:11:53;7.70;99.90
6822;DHT22;3449;48.728;8.968;2023-03-21T03:14:39;7.70;99.90
6822;DHT22;3449;48.728;8.968;2023-03-21T03:17:20;7.70;99.90
6822;DHT22;3449;48.728;8.968;2023-03-21T03:20:03;7.70;99.90
6822;DHT22;3449;48.728;8.968;2023-03-21T03:22:39;7.70;99.90
6822;DHT22;3449;48.728;8.968;2023-03-21T03:25:13;7.70;99.90
6822;DHT22;3449;48.728;8.968;2023-03-21T03:27:42;7.70;99.90
6822;DHT22;3449;48.728;8.968;2023-03-21T03:30:11;7.70;99.90
6822;DHT22;3449;48.728;8.968;2023-03-21T03:32:41;7.60;99.90
6822;DHT22;3449;48.728;8.968;2023-03-21T03:35:13;7.60;99.90
6822;DHT22;3449;48.728;8.968;2023-03-21T03:37:41;7.60;99.90
6822;DHT22;3449;48.728;8.968;2023-03-21T03:40:14;7.60;99.90
6822;DHT22;3449;48.728;8.968;2023-03-21T03:42:46;7.60;99.90
6822;DHT22;3449;48.728;8.968;2023-03-21T03:45:14;7.60;99.90
6822;DHT22;3449;48.728;8.968;2023-03-21T03:47:44;7.60;99.90
6822;DHT22;3449;48.728;8.968;2023-03-21T03:50:19;7.50;99.90
6822;DHT22;3449;48.728;8.968;2023-03-21T03:52:53;7.50;99.90
6822;DHT22;3449;48.728;8.968;2023-03-21T03:55:23;7.50;99.90
6822;DHT22;3449;48.728;8.968;2023-03-21T03:57:53;7.40;99.90
6822;DHT22;3449;48.728;8.968;2023-03-21T04:00:20;7.40;99.90
6822;DHT22;3449;48.728;8.968;2023-03-21T04:02:47;7.40;99.90
6822;DHT22;3449;48.728;8.968;2023-03-21T04:05:14;7.40;99.90
6822;DHT22;3449;48.728;8.968;2023-03-21T04:07:45;7.40;99.90
6822;DHT22;3449;48.728;8.968;2023-03-21T04:10:13;7.30;99.90
6822;DHT22;3449;48.728;8.968;2023-03-21T04:12:41;7.30;99.90
6822;DHT22;3449;48.728;8.968;2023-03-21T04:15:09;7.30;99.90
6822;DHT22;3449;48.728;8.968;2023-03-21T04:17:37;7.20;99.90
6822;DHT22;3449;48.728;8.968;2023-03-21T04:20:05;7.20;99.90
6822;DHT22;3449;48.728;8.968;2023-03-21T04:22:32;7.10;99.90
6822;DHT22;3449;48.728;8.968;2023-03-21T04:24:59;7.10;99.90
6822;DHT22;3449;48.728;8.968;2023-03-21T04:27:26;7.00;99.90
6822;DHT22;3449;48.728;8.968;2023-03-21T04:29:55;7.00;99.90
6822;DHT22;3449;48.728;8.968;2023-03-21T04:32:21;6.90;99.90
6822;DHT22;3449;48.728;8.968;2023-03-21T04:34:51;6.90;99.90
6822;DHT22;3449;48.728;8.968;2023-03-21T04:37:20;6.80;99.90
6822;DHT22;3449;48.728;8.968;2023-03-21T04:39:48;6.80;99.90
6822;DHT22;3449;48.728;8.968;2023-03-21T04:42:17;6.70;99.90
6822;DHT22;3449;48.728;8.968;2023-03-21T04:44:44;6.70;99.90
6822;DHT22;3449;48.728;8.968;2023-03-21T04:47:12;6.60;99.90
6822;DHT22;3449;48.728;8.968;2023-03-21T04:49:40;6.60;99.90
6822;DHT22;3449;48.728;8.968;2023-03-21T04:52:07;6.50;99.90
6822;DHT22;3449;48.728;8.968;2023-03-21T04:54:34;6.50;99.90
6822;DHT22;3449;48.728;8.968;2023-03-21T04:57:01;6.40;99.90
6822;DHT22;3449;48.728;8.968;2023-03-21T04:59:29;6.30;99.90
6822;DHT22;3449;48.728;8.968;2023-03-21T05:01:56;6.30;99.90
6822;DHT22;3449;48.728;8.968;2023-03-21T05:04:25;6.30;99.90
6822;DHT22;3449;48.728;8.968;2023-03-21T05:06:52;6.20;99.90
6822;DHT22;3449;48.728;8.968;2023-03-21T05:09:24;6.10;99.90
6822;DHT22;3449;48.728;8.968;2023-03-21T05:11:54;6.10;99.90
6822;DHT22;3449;48.728;8.968;2023-03-21T05:14:22;6.00;99.90
6822;DHT22;3449;48.728;8.968;2023-03-21T05:16:50;6.00;99.90
6822;DHT22;3449;48.728;8.968;2023-03-21T05:19:21;6.00;99.90
6822;DHT22;3449;48.728;8.968;2023-03-21T05:21:50;5.90;99.90
6822;DHT22;3449;48.728;8.968;2023-03-21T05:24:19;5.90;99.90
6822;DHT22;3449;48.728;8.968;2023-03-21T05:26:47;5.90;99.90
6822;DHT22;3449;48.728;8.968;2023-03-21T05:29:17;5.90;99.90
6822;DHT22;3449;48.728;8.968;2023-03-21T05:31:45;6.00;99.90
6822;DHT22;3449;48.728;8.968;2023-03-21T05:34:12;6.00;99.90
6822;DHT22;3449;48.728;8.968;2023-03-21T05:36:39;6.00;99.90
6822;DHT22;3449;48.728;8.968;2023-03-21T05:39:07;6.10;99.90
6822;DHT22;3449;48.728;8.968;2023-03-21T05:41:34;6.10;99.90
6822;DHT22;3449;48.728;8.968;2023-03-21T05:44:01;6.10;99.90
6822;DHT22;3449;48.728;8.968;2023-03-21T05:46:28;6.10;99.90
6822;DHT22;3449;48.728;8.968;2023-03-21T05:48:55;6.10;99.90
6822;DHT22;3449;48.728;8.968;2023-03-21T05:51:22;6.10;99.90
6822;DHT22;3449;48.728;8.968;2023-03-21T05:53:48;6.10;99.90
6822;DHT22;3449;48.728;8.968;2023-03-21T05:56:18;6.10;99.90
6822;DHT22;3449;48.728;8.968;2023-03-21T05:58:45;6.00;99.90
6822;DHT22;3449;48.728;8.968;2023-03-21T06:01:12;6.00;99.90
6822;DHT22;3449;48.728;8.968;2023-03-21T06:03:39;6.00;99.90
6822;DHT22;3449;48.728;8.968;2023-03-21T06:06:07;6.00;99.90
6822;DHT22;3449;48.728;8.968;2023-03-21T06:08:34;6.00;99.90
6822;DHT22;3449;48.728;8.968;2023-03-21T06:11:01;6.00;99.90
6822;DHT22;3449;48.728;8.968;2023-03-21T06:13:29;6.00;99.90
6822;DHT22;3449;48.728;8.968;2023-03-21T06:15:57;6.00;99.90
6822;DHT22;3449;48.728;8.968;2023-03-21T06:18:24;6.00;99.90
6822;DHT22;3449;48.728;8.968;2023-03-21T06:20:52;6.00;99.90
6822;DHT22;3449;48.728;8.968;2023-03-21T06:23:21;6.00;99.90
6822;DHT22;3449;48.728;8.968;2023-03-21T06:25:48;6.00;99.90
6822;DHT22;3449;48.728;8.968;2023-03-21T06:28:14;6.00;99.90
6822;DHT22;3449;48.728;8.968;2023-03-21T06:30:43;6.10;99.90
6822;DHT22;3449;48.728;8.968;2023-03-21T06:33:10;6.10;99.90
6822;DHT22;3449;48.728;8.968;2023-03-21T06:35:36;6.20;99.90
6822;DHT22;3449;48.728;8.968;2023-03-21T06:38:03;6.30;99.90
6822;DHT22;3449;48.728;8.968;2023-03-21T06:40:31;6.50;99.90
6822;DHT22;3449;48.728;8.968;2023-03-21T06:42:58;6.70;99.90
6822;DHT22;3449;48.728;8.968;2023-03-21T06:45:25;6.80;99.90
6822;DHT22;3449;48.728;8.968;2023-03-21T06:47:53;7.00;99.90
6822;DHT22;3449;48.728;8.968;2023-03-21T06:50:20;7.20;99.90
6822;DHT22;3449;48.728;8.968;2023-03-21T06:52:47;7.40;99.90
6822;DHT22;3449;48.728;8.968;2023-03-21T06:55:15;7.50;99.90
6822;DHT22;3449;48.728;8.968;2023-03-21T06:57:43;7.60;99.90
6822;DHT22;3449;48.728;8.968;2023-03-21T07:00:11;7.70;99.90
6822;DHT22;3449;48.728;8.968;2023-03-21T07:02:38;7.90;99.90
6822;DHT22;3449;48.728;8.968;2023-03-21T07:05:07;8.00;99.90
6822;DHT22;3449;48.728;8.968;2023-03-21T07:07:34;8.20;99.90
6822;DHT22;3449;48.728;8.968;2023-03-21T07:10:02;8.30;99.90
6822;DHT22;3449;48.728;8.968;2023-03-21T07:12:29;8.30;99.90
6822;DHT22;3449;48.728;8.968;2023-03-21T07:14:58;8.40;99.90
6822;DHT22;3449;48.728;8.968;2023-03-21T07:17:25;8.50;99.90
6822;DHT22;3449;48.728;8.968;2023-03-21T07:19:52;8.60;99.90
6822;DHT22;3449;48.728;8.968;2023-03-21T07:22:20;8.80;99.90
6822;DHT22;3449;48.728;8.968;2023-03-21T07:24:47;8.90;99.90
6822;DHT22;3449;48.728;8.968;2023-03-21T07:27:14;8.90;99.90
6822;DHT22;3449;48.728;8.968;2023-03-21T07:29:41;9.10;99.90
6822;DHT22;3449;48.728;8.968;2023-03-21T07:32:09;9.20;99.90
6822;DHT22;3449;48.728;8.968;2023-03-21T07:34:36;9.40;99.90
6822;DHT22;3449;48.728;8.968;2023-03-21T07:37:03;9.60;99.90
6822;DHT22;3449;48.728;8.968;2023-03-21T07:39:33;9.70;99.90
6822;DHT22;3449;48.728;8.968;2023-03-21T07:42:00;10.00;99.90
6822;DHT22;3449;48.728;8.968;2023-03-21T07:44:27;10.20;99.90
6822;DHT22;3449;48.728;8.968;2023-03-21T07:46:55;10.30;99.90
6822;DHT22;3449;48.728;8.968;2023-03-21T07:49:21;10.50;99.90
6822;DHT22;3449;48.728;8.968;2023-03-21T07:51:48;10.80;99.90
6822;DHT22;3449;48.728;8.968;2023-03-21T07:54:15;11.00;99.90
6822;DHT22;3449;48.728;8.968;2023-03-21T07:56:46;11.00;99.90
6822;DHT22;3449;48.728;8.968;2023-03-21T07:59:13;11.20;99.90
6822;DHT22;3449;48.728;8.968;2023-03-21T08:01:40;11.40;99.90
6822;DHT22;3449;48.728;8.968;2023-03-21T08:04:07;11.40;99.90
6822;DHT22;3449;48.728;8.968;2023-03-21T08:06:34;11.50;99.90
6822;DHT22;3449;48.728;8.968;2023-03-21T08:09:01;11.50;99.90
6822;DHT22;3449;48.728;8.968;2023-03-21T08:11:28;11.50;99.90
6822;DHT22;3449;48.728;8.968;2023-03-21T08:13:57;11.50;99.90
6822;DHT22;3449;48.728;8.968;2023-03-21T08:16:24;11.70;99.90
6822;DHT22;3449;48.728;8.968;2023-03-21T08:18:51;11.70;99.90
6822;DHT22;3449;48.728;8.968;2023-03-21T08:21:18;11.90;99.90
6822;DHT22;3449;48.728;8.968;2023-03-21T08:23:45;12.10;99.90
6822;DHT22;3449;48.728;8.968;2023-03-21T08:26:12;12.30;99.90
6822;DHT22;3449;48.728;8.968;2023-03-21T08:28:40;12.60;99.90
6822;DHT22;3449;48.728;8.968;2023-03-21T08:31:10;12.70;99.90
6822;DHT22;3449;48.728;8.968;2023-03-21T08:33:37;12.80;99.90
6822;DHT22;3449;48.728;8.968;2023-03-21T08:36:05;12.80;99.90
6822;DHT22;3449;48.728;8.968;2023-03-21T08:38:32;12.90;99.90
6822;DHT22;3449;48.728;8.968;2023-03-21T08:41:00;13.20;99.90
6822;DHT22;3449;48.728;8.968;2023-03-21T08:43:27;13.40;99.90
6822;DHT22;3449;48.728;8.968;2023-03-21T08:45:55;13.00;99.90
6822;DHT22;3449;48.728;8.968;2023-03-21T08:48:23;12.70;99.90
6822;DHT22;3449;48.728;8.968;2023-03-21T08:50:50;12.60;99.90
6822;DHT22;3449;48.728;8.968;2023-03-21T08:53:17;12.50;99.90
6822;DHT22;3449;48.728;8.968;2023-03-21T08:55:44;12.50;99.90
6822;DHT22;3449;48.728;8.968;2023-03-21T08:58:11;12.50;99.90
6822;DHT22;3449;48.728;8.968;2023-03-21T09:00:38;12.90;99.90
6822;DHT22;3449;48.728;8.968;2023-03-21T09:03:04;13.10;99.90
6822;DHT22;3449;48.728;8.968;2023-03-21T09:05:33;13.40;99.90
6822;DHT22;3449;48.728;8.968;2023-03-21T09:08:01;13.90;99.90
6822;DHT22;3449;48.728;8.968;2023-03-21T09:10:28;13.90;99.90
6822;DHT22;3449;48.728;8.968;2023-03-21T09:12:55;13.80;99.90
6822;DHT22;3449;48.728;8.968;2023-03-21T09:15:24;14.30;99.90
6822;DHT22;3449;48.728;8.968;2023-03-21T09:17:53;14.50;99.90
6822;DHT22;3449;48.728;8.968;2023-03-21T09:20:24;14.80;99.90
6822;DHT22;3449;48.728;8.968;2023-03-21T09:22:56;14.60;99.90
6822;DHT22;3449;48.728;8.968;2023-03-21T09:25:24;14.50;99.90
6822;DHT22;3449;48.728;8.968;2023-03-21T09:27:55;14.40;99.90
6822;DHT22;3449;48.728;8.968;2023-03-21T09:30:22;14.90;99.90
6822;DHT22;3449;48.728;8.968;2023-03-21T09:32:49;15.00;99.90
6822;DHT22;3449;48.728;8.968;2023-03-21T09:35:19;15.00;99.90
6822;DHT22;3449;48.728;8.968;2023-03-21T09:37:47;14.80;99.90
6822;DHT22;3449;48.728;8.968;2023-03-21T09:40:19;15.10;99.90
6822;DHT22;3449;48.728;8.968;2023-03-21T09:42:55;14.90;99.90
6822;DHT22;3449;48.728;8.968;2023-03-21T09:45:31;14.70;99.90
6822;DHT22;3449;48.728;8.968;2023-03-21T09:48:01;14.70;99.90
6822;DHT22;3449;48.728;8.968;2023-03-21T09:50:30;14.90;99.90
6822;DHT22;3449;48.728;8.968;2023-03-21T09:53:00;14.80;99.90
6822;DHT22;3449;48.728;8.968;2023-03-21T09:55:32;14.60;99.90
6822;DHT22;3449;48.728;8.968;2023-03-21T09:58:06;14.70;99.90
6822;DHT22;3449;48.728;8.968;2023-03-21T10:00:36;14.50;99.90
6822;DHT22;3449;48.728;8.968;2023-03-21T10:03:09;14.70;99.90
6822;DHT22;3449;48.728;8.968;2023-03-21T10:05:40;14.90;99.90
6822;DHT22;3449;48.728;8.968;2023-03-21T10:08:13;15.10;99.90
6822;DHT22;3449;48.728;8.968;2023-03-21T10:10:46;15.30;99.90
6822;DHT22;3449;48.728;8.968;2023-03-21T10:13:16;15.30;99.90
6822;DHT22;3449;48.728;8.968;2023-03-21T10:15:45;15.60;99.90
6822;DHT22;3449;48.728;8.968;2023-03-21T10:18:15;15.50;99.90
6822;DHT22;3449;48.728;8.968;2023-03-21T10:20:44;15.60;99.90
6822;DHT22;3449;48.728;8.968;2023-03-21T10:23:13;15.30;99.90
6822;DHT22;3449;48.728;8.968;2023-03-21T10:25:42;15.30;99.90
6822;DHT22;3449;48.728;8.968;2023-03-21T10:28:16;15.00;99.90
6822;DHT22;3449;48.728;8.968;2023-03-21T10:30:45;14.90;99.90
6822;DHT22;3449;48.728;8.968;2023-03-21T10:33:17;14.90;99.90
6822;DHT22;3449;48.728;8.968;2023-03-21T10:35:49;14.80;99.90
6822;DHT22;3449;48.728;8.968;2023-03-21T10:38:18;14.70;99.90
6822;DHT22;3449;48.728;8.968;2023-03-21T10:40:46;14.70;99.90
6822;DHT22;3449;48.728;8.968;2023-03-21T10:43:31;14.70;99.90
6822;DHT22;3449;48.728;8.968;2023-03-21T10:46:10;14.80;99.90
6822;DHT22;3449;48.728;8.968;2023-03-21T10:48:39;14.90;99.90
6822;DHT22;3449;48.728;8.968;2023-03-21T10:51:15;14.90;99.90
6822;DHT22;3449;48.728;8.968;2023-03-21T10:53:46;14.90;99.90
6822;DHT22;3449;48.728;8.968;2023-03-21T10:56:16;15.00;99.90
6822;DHT22;3449;48.728;8.968;2023-03-21T10:58:46;15.00;99.90
6822;DHT22;3449;48.728;8.968;2023-03-21T11:01:24;15.00;99.90
6822;DHT22;3449;48.728;8.968;2023-03-21T11:03:56;14.90;99.90
6822;DHT22;3449;48.728;8.968;2023-03-21T11:06:28;15.00;99.90
6822;DHT22;3449;48.728;8.968;2023-03-21T11:09:00;15.20;99.90
6822;DHT22;3449;48.728;8.968;2023-03-21T11:11:33;15.30;99.90
6822;DHT22;3449;48.728;8.968;2023-03-21T11:14:04;15.40;99.90
6822;DHT22;3449;48.728;8.968;2023-03-21T11:16:38;15.30;99.90
6822;DHT22;3449;48.728;8.968;2023-03-21T11:19:14;15.30;99.90
6822;DHT22;3449;48.728;8.968;2023-03-21T11:21:41;15.30;99.90
6822;DHT22;3449;48.728;8.968;2023-03-21T11:24:12;15.20;99.90
6822;DHT22;3449;48.728;8.968;2023-03-21T11:26:42;15.30;99.90
6822;DHT22;3449;48.728;8.968;2023-03-21T11:29:32;15.40;99.90
6822;DHT22;3449;48.728;8.968;2023-03-21T11:32:00;15.50;99.90
6822;DHT22;3449;48.728;8.968;2023-03-21T11:34:43;15.50;99.90
6822;DHT22;3449;48.728;8.968;2023-03-21T11:37:19;15.40;99.90
6822;DHT22;3449;48.728;8.968;2023-03-21T11:39:46;15.30;99.90
6822;DHT22;3449;48.728;8.968;2023-03-21T11:42:31;15.30;99.90
6822;DHT22;3449;48.728;8.968;2023-03-21T11:45:04;15.30;99.90
6822;DHT22;3449;48.728;8.968;2023-03-21T11:47:36;15.40;99.90
6822;DHT22;3449;48.728;8.968;2023-03-21T11:53:07;15.30;99.90
6822;DHT22;3449;48.728;8.968;2023-03-21T11:55:49;15.40;99.90
6822;DHT22;3449;48.728;8.968;2023-03-21T11:58:32;15.50;99.90
6822;DHT22;3449;48.728;8.968;2023-03-21T12:01:09;15.30;99.90
6822;DHT22;3449;48.728;8.968;2023-03-21T12:03:46;15.30;99.90
6822;DHT22;3449;48.728;8.968;2023-03-21T12:06:21;15.10;99.90
6822;DHT22;3449;48.728;8.968;2023-03-21T12:09:01;15.00;99.90
6822;DHT22;3449;48.728;8.968;2023-03-21T12:11:36;15.00;99.90
6822;DHT22;3449;48.728;8.968;2023-03-21T12:14:13;15.00;99.90
6822;DHT22;3449;48.728;8.968;2023-03-21T12:16:53;15.10;99.90
6822;DHT22;3449;48.728;8.968;2023-03-21T12:19:35;15.30;99.90
6822;DHT22;3449;48.728;8.968;2023-03-21T12:22:11;15.30;99.90
6822;DHT22;3449;48.728;8.968;2023-03-21T12:24:47;15.40;99.90
6822;DHT22;3449;48.728;8.968;2023-03-21T12:27:21;15.50;99.90
6822;DHT22;3449;48.728;8.968;2023-03-21T12:29:59;15.70;99.90
6822;DHT22;3449;48.728;8.968;2023-03-21T12:32:42;15.80;99.90
6822;DHT22;3449;48.728;8.968;2023-03-21T12:35:22;15.90;99.90
6822;DHT22;3449;48.728;8.968;2023-03-21T12:37:56;16.20;99.90
6822;DHT22;3449;48.728;8.968;2023-03-21T12:40:36;16.30;99.90
6822;DHT22;3449;48.728;8.968;2023-03-21T12:43:27;16.40;99.90
6822;DHT22;3449;48.728;8.968;2023-03-21T12:46:00;16.40;99.90
6822;DHT22;3449;48.728;8.968;2023-03-21T12:48:36;16.20;99.90
6822;DHT22;3449;48.728;8.968;2023-03-21T12:51:07;16.10;99.90
6822;DHT22;3449;48.728;8.968;2023-03-21T12:53:47;16.20;99.90
6822;DHT22;3449;48.728;8.968;2023-03-21T12:56:20;16.20;99.90
6822;DHT22;3449;48.728;8.968;2023-03-21T12:58:53;16.30;99.90
6822;DHT22;3449;48.728;8.968;2023-03-21T13:01:27;16.30;99.90
6822;DHT22;3449;48.728;8.968;2023-03-21T13:04:09;16.60;99.90
6822;DHT22;3449;48.728;8.968;2023-03-21T13:06:44;16.80;99.90
6822;DHT22;3449;48.728;8.968;2023-03-21T13:09:15;16.70;99.90
6822;DHT22;3449;48.728;8.968;2023-03-21T13:11:44;16.90;99.90
6822;DHT22;3449;48.728;8.968;2023-03-21T13:14:15;17.10;99.90
6822;DHT22;3449;48.728;8.968;2023-03-21T13:16:46;17.40;99.90
6822;DHT22;3449;48.728;8.968;2023-03-21T13:19:21;17.50;99.90
6822;DHT22;3449;48.728;8.968;2023-03-21T13:21:56;17.40;99.90
6822;DHT22;3449;48.728;8.968;2023-03-21T13:24:31;17.50;99.90
6822;DHT22;3449;48.728;8.968;2023-03-21T13:27:02;17.50;99.90
6822;DHT22;3449;48.728;8.968;2023-03-21T13:29:32;17.60;99.90
6822;DHT22;3449;48.728;8.968;2023-03-21T13:32:07;17.50;99.90
6822;DHT22;3449;48.728;8.968;2023-03-21T13:34:39;17.30;99.90
6822;DHT22;3449;48.728;8.968;2023-03-21T13:37:14;17.20;99.90
6822;DHT22;3449;48.728;8.968;2023-03-21T13:39:43;17.00;99.90
6822;DHT22;3449;48.728;8.968;2023-03-21T13:42:19;16.90;99.90
6822;DHT22;3449;48.728;8.968;2023-03-21T13:44:49;17.00;99.90
6822;DHT22;3449;48.728;8.968;2023-03-21T13:47:33;17.00;99.90
6822;DHT22;3449;48.728;8.968;2023-03-21T13:50:22;16.70;99.90
6822;DHT22;3449;48.728;8.968;2023-03-21T13:56:07;16.20;99.90
6822;DHT22;3449;48.728;8.968;2023-03-21T13:58:36;16.30;99.90
6822;DHT22;3449;48.728;8.968;2023-03-21T14:01:15;16.20;99.90
6822;DHT22;3449;48.728;8.968;2023-03-21T14:03:46;16.20;99.90
6822;DHT22;3449;48.728;8.968;2023-03-21T14:06:16;16.20;99.90
6822;DHT22;3449;48.728;8.968;2023-03-21T14:08:46;16.20;99.90
6822;DHT22;3449;48.728;8.968;2023-03-21T14:11:16;16.30;99.90
6822;DHT22;3449;48.728;8.968;2023-03-21T14:13:45;16.30;99.90
6822;DHT22;3449;48.728;8.968;2023-03-21T14:16:14;16.40;99.90
6822;DHT22;3449;48.728;8.968;2023-03-21T14:18:44;16.40;99.90
6822;DHT22;3449;48.728;8.968;2023-03-21T14:21:18;16.30;99.90
6822;DHT22;3449;48.728;8.968;2023-03-21T14:23:45;16.30;99.90
6822;DHT22;3449;48.728;8.968;2023-03-21T14:26:13;16.40;99.90
6822;DHT22;3449;48.728;8.968;2023-03-21T14:28:48;16.60;99.90
6822;DHT22;3449;48.728;8.968;2023-03-21T14:31:17;16.50;99.90
6822;DHT22;3449;48.728;8.968;2023-03-21T14:33:47;16.50;99.90
6822;DHT22;3449;48.728;8.968;2023-03-21T14:36:20;16.50;99.90
6822;DHT22;3449;48.728;8.968;2023-03-21T14:38:55;16.70;99.90
6822;DHT22;3449;48.728;8.968;2023-03-21T14:41:24;16.60;99.90
6822;DHT22;3449;48.728;8.968;2023-03-21T14:44:20;16.70;99.90
6822;DHT22;3449;48.728;8.968;2023-03-21T14:46:58;16.70;99.90
6822;DHT22;3449;48.728;8.968;2023-03-21T14:49:28;16.80;99.90
6822;DHT22;3449;48.728;8.968;2023-03-21T14:51:59;16.80;99.90
6822;DHT22;3449;48.728;8.968;2023-03-21T14:54:27;16.80;99.90
6822;DHT22;3449;48.728;8.968;2023-03-21T14:56:58;16.90;99.90
6822;DHT22;3449;48.728;8.968;2023-03-21T14:59:29;17.10;99.90
6822;DHT22;3449;48.728;8.968;2023-03-21T15:01:59;17.40;99.90
6822;DHT22;3449;48.728;8.968;2023-03-21T15:04:28;17.50;99.90
6822;DHT22;3449;48.728;8.968;2023-03-21T15:07:04;17.90;99.90
6822;DHT22;3449;48.728;8.968;2023-03-21T15:09:35;18.40;99.90
6822;DHT22;3449;48.728;8.968;2023-03-21T15:12:07;18.30;99.90
6822;DHT22;3449;48.728;8.968;2023-03-21T15:14:34;18.40;99.90
6822;DHT22;3449;48.728;8.968;2023-03-21T15:17:02;18.30;99.90
6822;DHT22;3449;48.728;8.968;2023-03-21T15:19:33;18.20;99.90
6822;DHT22;3449;48.728;8.968;2023-03-21T15:22:07;17.60;99.90
6822;DHT22;3449;48.728;8.968;2023-03-21T15:24:37;17.10;99.90
6822;DHT22;3449;48.728;8.968;2023-03-21T15:27:11;16.70;99.90
6822;DHT22;3449;48.728;8.968;2023-03-21T15:29:39;16.30;99.90
6822;DHT22;3449;48.728;8.968;2023-03-21T15:32:12;16.00;99.90
6822;DHT22;3449;48.728;8.968;2023-03-21T15:34:40;15.80;99.90
6822;DHT22;3449;48.728;8.968;2023-03-21T15:37:16;15.60;99.90
6822;DHT22;3449;48.728;8.968;2023-03-21T15:39:43;15.50;99.90
6822;DHT22;3449;48.728;8.968;2023-03-21T15:42:25;15.50;99.90
6822;DHT22;3449;48.728;8.968;2023-03-21T15:44:55;15.30;99.90
6822;DHT22;3449;48.728;8.968;2023-03-21T15:47:42;15.10;99.90
6822;DHT22;3449;48.728;8.968;2023-03-21T15:50:23;15.00;99.90
6822;DHT22;3449;48.728;8.968;2023-03-21T15:52:53;14.90;99.90
6822;DHT22;3449;48.728;8.968;2023-03-21T15:55:22;14.80;99.90
6822;DHT22;3449;48.728;8.968;2023-03-21T15:57:51;14.70;99.90
6822;DHT22;3449;48.728;8.968;2023-03-21T16:00:22;14.70;99.90
6822;DHT22;3449;48.728;8.968;2023-03-21T16:02:55;14.70;99.90
6822;DHT22;3449;48.728;8.968;2023-03-21T16:05:25;14.60;99.90
6822;DHT22;3449;48.728;8.968;2023-03-21T16:07:57;14.50;99.90
6822;DHT22;3449;48.728;8.968;2023-03-21T16:10:28;14.50;99.90
6822;DHT22;3449;48.728;8.968;2023-03-21T16:12:56;14.40;99.90
6822;DHT22;3449;48.728;8.968;2023-03-21T16:15:24;14.30;99.90
6822;DHT22;3449;48.728;8.968;2023-03-21T16:17:54;14.20;99.90
6822;DHT22;3449;48.728;8.968;2023-03-21T16:20:24;14.10;99.90
6822;DHT22;3449;48.728;8.968;2023-03-21T16:22:51;14.10;99.90
6822;DHT22;3449;48.728;8.968;2023-03-21T16:25:20;14.10;99.90
6822;DHT22;3449;48.728;8.968;2023-03-21T16:27:47;14.10;99.90
6822;DHT22;3449;48.728;8.968;2023-03-21T16:30:17;14.10;99.90
6822;DHT22;3449;48.728;8.968;2023-03-21T16:32:44;14.10;99.90
6822;DHT22;3449;48.728;8.968;2023-03-21T16:35:12;14.00;99.90
6822;DHT22;3449;48.728;8.968;2023-03-21T16:37:39;13.90;99.90
6822;DHT22;3449;48.728;8.968;2023-03-21T16:40:16;13.90;99.90
6822;DHT22;3449;48.728;8.968;2023-03-21T16:42:44;13.90;99.90